• Join FlightAware (Why Join?)
  • Login
  • US Flag 
10:15AM EDT


 

Airport Tracker/Info


-or-


 

Live Flight TrackerFlight Track Log ✈ SKW4614 ✈ 09-May-2013 ✈ KGJT - KSLC

Flight Track Log - Related Links

Times and Time Zones

All times are in EDT time to prevent confusion due to time zone crossing. See the SKW4614 flight status page for this flight to view local times or setup timezone preferences in your user account.

Time Position Orientation Groundspeed Altitude Reporting Facility
EDT Latitude Longitude Course Direction KTS MPH feet Rate Location/Type
08:42AM 39.0997 -108.5003 288° West 179 206 6,100  Level Denver Center
08:43AM 39.0789 -108.5681 248° West 225 259 8,400 2,100 Climbing Denver Center
08:44AM 39.0786 -108.6639 270° West 270 311 10,400 1,980 Climbing Denver Center
08:45AM 39.1085 -108.9353 300° West  Level FlightAware Approximate
08:45AM 39.0906 -108.7733 278° West 307 353 12,500  Level Denver Center
08:46AM 39.1527 -109.0326 300° West  Level FlightAware Approximate
08:46AM 39.1058 -108.8939 279° West 341 392 14,000  Level Denver Center
08:47AM 39.1916 -109.1331 288° West  Level FlightAware Approximate
08:47AM 39.1503 -109.0164 295° West 375 432 15,400  Level Denver Center
08:48AM 39.2036 -109.1506 297° West 394 453 17,500 1,620 Climbing Denver Center
08:49AM 39.2519 -109.2672 298° West 391 450 18,800 1,140 Climbing Denver Center
08:50AM 39.3000 -109.3911 297° West 403 464 19,900 1,200 Climbing Denver Center
08:50AM 39.3164 -109.4311 298° West 398 458 20,400 1,380 Climbing Salt Lake Center
08:51AM 39.3669 -109.5597 297° West 412 474 21,700 1,260 Climbing Salt Lake Center
08:52AM 39.4086 -109.6658 297° West 414 476 22,700 1,020 Climbing Denver Center
08:53AM 39.4606 -109.7961 297° West 422 486 23,600 1,020 Climbing Denver Center
08:54AM 39.5206 -109.9483 297° West 423 487 24,800 960 Climbing Denver Center
08:55AM 39.5725 -110.0814 297° West 430 495 25,600 840 Climbing Denver Center
08:55AM 39.5900 -110.1258 297° West 431 496 25,900 360 Climbing Salt Lake Center
08:56AM 39.6239 -110.2144 296° West 431 496 26,000 60 Climbing Denver Center
08:56AM 39.6417 -110.2597 297° West 433 498 26,000  Level Salt Lake Center
08:57AM 39.6967 -110.3978 297° West 446 513 26,000  Level Salt Lake Center
08:58AM 39.7461 -110.5283 296° West 426 490 26,000  Level Salt Lake Center
08:59AM 39.7511 -110.6961 272° West 430 495 26,000  Level Salt Lake Center
09:00AM 39.7353 -110.8433 262° West 430 495 26,000  Level Salt Lake Center
09:01AM 39.7244 -110.9894 265° West 426 490 26,000  Level Salt Lake Center
09:02AM 39.7839 -111.1372 298° West 418 481 26,000 -120 Level Salt Lake Center
09:03AM 39.8678 -111.2339 319° Northwest 417 480 25,800 -1,200 Descending Salt Lake Center
09:04AM 39.9508 -111.3300 318° Northwest 417 480 23,600 -2,280 Descending Salt Lake Center
09:05AM 40.0406 -111.4369 318° Northwest 399 459 21,300 -2,280 Descending Salt Lake Center
09:06AM 40.0872 -111.5061 311° West 383 441 19,900 -1,920 Descending Salt Lake Center
09:06AM 40.1108 -111.5225 332° Northwest 382 440 19,400 -600 Descending Salt Lake Center
09:07AM 40.1642 -111.6358 302° West 370 426 19,100 -600 Descending Salt Lake Center
09:08AM 40.2125 -111.7650 296° West 391 450 18,200 -900 Descending Salt Lake Center
09:09AM 40.2575 -111.8883 296° West 375 432 17,400 -840 Descending Salt Lake Center
09:10AM 40.3247 -111.9758 315° West 348 400 16,600 -1,140 Descending Salt Lake Center
09:12AM 40.4081 -112.0383 330° Northwest 343 395 15,100 -1,680 Descending Salt Lake Center
09:13AM 40.5186 -112.0606 351° North 335 386 13,300 -1,920 Descending Salt Lake Center
09:14AM 40.6103 -112.0747 353° North 331 381 11,300 -1,140 Descending Salt Lake Center
09:15AM 40.6986 -112.0853 355° North 320 368 11,000 -180 Descending Salt Lake Center
09:16AM 40.7672 -112.0975 352° North 238 274 11,000  Level Salt Lake Center
09:17AM 40.8311 -112.1042 355° North 226 260 11,000 -600 Level Salt Lake Center
09:18AM 40.8892 -112.1078 357° North 221 254 9,900 -1,200 Descending Salt Lake Center
09:19AM 40.9494 -112.1142 355° North 218 251 8,700 -900 Descending Salt Lake Center
09:20AM 41.0072 -112.1211 355° North 209 241 8,100 -360 Descending Salt Lake Center
09:21AM 41.0411 -112.0842 39° Northeast 194 223 8,000 -300 Descending Salt Lake Center
09:22AM 41.0117 -112.0264 124° Southeast 198 228 7,500 -480 Descending Salt Lake Center
09:23AM 40.9569 -112.0164 172° South 202 232 7,100 -420 Descending Salt Lake Center